sensor_id;sensor_type;location;lat;lon;timestamp;P1;durP1;ratioP1;P2;durP2;ratioP2
68942;SDS011;60852;52.190;4.422;2023-05-29T00:01:24;8.31;;;5.81;;
68942;SDS011;60852;52.190;4.422;2023-05-29T00:03:50;9.26;;;6.28;;
68942;SDS011;60852;52.190;4.422;2023-05-29T00:06:16;8.96;;;6.09;;
68942;SDS011;60852;52.190;4.422;2023-05-29T00:08:42;9.07;;;6.22;;
68942;SDS011;60852;52.190;4.422;2023-05-29T00:11:08;8.43;;;5.83;;
68942;SDS011;60852;52.190;4.422;2023-05-29T00:13:34;8.78;;;6.02;;
68942;SDS011;60852;52.190;4.422;2023-05-29T00:15:59;8.71;;;6.07;;
68942;SDS011;60852;52.190;4.422;2023-05-29T00:18:26;9.01;;;6.31;;
68942;SDS011;60852;52.190;4.422;2023-05-29T00:20:52;8.83;;;6.05;;
68942;SDS011;60852;52.190;4.422;2023-05-29T00:23:18;8.65;;;5.84;;
68942;SDS011;60852;52.190;4.422;2023-05-29T00:25:44;8.35;;;5.80;;
68942;SDS011;60852;52.190;4.422;2023-05-29T00:28:09;9.08;;;6.25;;
68942;SDS011;60852;52.190;4.422;2023-05-29T00:30:37;9.42;;;6.43;;
68942;SDS011;60852;52.190;4.422;2023-05-29T00:33:02;8.99;;;6.27;;
68942;SDS011;60852;52.190;4.422;2023-05-29T00:35:28;8.42;;;5.97;;
68942;SDS011;60852;52.190;4.422;2023-05-29T00:37:53;7.96;;;5.53;;
68942;SDS011;60852;52.190;4.422;2023-05-29T00:40:18;8.66;;;5.91;;
68942;SDS011;60852;52.190;4.422;2023-05-29T00:42:44;9.01;;;6.17;;
68942;SDS011;60852;52.190;4.422;2023-05-29T00:45:09;8.48;;;5.94;;
68942;SDS011;60852;52.190;4.422;2023-05-29T00:47:36;8.16;;;5.82;;
68942;SDS011;60852;52.190;4.422;2023-05-29T00:50:02;7.91;;;5.60;;
68942;SDS011;60852;52.190;4.422;2023-05-29T00:52:28;8.71;;;6.20;;
68942;SDS011;60852;52.190;4.422;2023-05-29T00:54:54;9.22;;;6.33;;
68942;SDS011;60852;52.190;4.422;2023-05-29T00:57:21;8.94;;;6.06;;
68942;SDS011;60852;52.190;4.422;2023-05-29T00:59:47;9.24;;;6.26;;
68942;SDS011;60852;52.190;4.422;2023-05-29T01:02:15;8.86;;;6.03;;
68942;SDS011;60852;52.190;4.422;2023-05-29T01:04:42;8.90;;;6.02;;
68942;SDS011;60852;52.190;4.422;2023-05-29T01:07:09;8.59;;;5.84;;
68942;SDS011;60852;52.190;4.422;2023-05-29T01:09:35;8.61;;;5.79;;
68942;SDS011;60852;52.190;4.422;2023-05-29T01:15:07;8.32;;;5.66;;
68942;SDS011;60852;52.190;4.422;2023-05-29T01:28:27;8.74;;;5.91;;
68942;SDS011;60852;52.190;4.422;2023-05-29T01:30:59;8.08;;;5.59;;
68942;SDS011;60852;52.190;4.422;2023-05-29T01:33:27;9.15;;;6.21;;
68942;SDS011;60852;52.190;4.422;2023-05-29T01:35:53;8.46;;;5.72;;
68942;SDS011;60852;52.190;4.422;2023-05-29T01:38:18;7.81;;;5.40;;
68942;SDS011;60852;52.190;4.422;2023-05-29T01:40:44;9.23;;;6.19;;
68942;SDS011;60852;52.190;4.422;2023-05-29T01:43:10;8.54;;;5.70;;
68942;SDS011;60852;52.190;4.422;2023-05-29T01:45:38;8.30;;;5.59;;
68942;SDS011;60852;52.190;4.422;2023-05-29T01:48:04;8.79;;;6.05;;
68942;SDS011;60852;52.190;4.422;2023-05-29T01:50:31;8.56;;;5.84;;
68942;SDS011;60852;52.190;4.422;2023-05-29T01:52:59;8.50;;;5.74;;
68942;SDS011;60852;52.190;4.422;2023-05-29T01:55:24;8.57;;;5.84;;
68942;SDS011;60852;52.190;4.422;2023-05-29T01:57:50;8.65;;;5.84;;
68942;SDS011;60852;52.190;4.422;2023-05-29T02:00:17;9.31;;;6.31;;
68942;SDS011;60852;52.190;4.422;2023-05-29T02:02:44;9.89;;;6.61;;
68942;SDS011;60852;52.190;4.422;2023-05-29T02:05:09;9.39;;;6.18;;
68942;SDS011;60852;52.190;4.422;2023-05-29T02:07:35;10.02;;;6.60;;
68942;SDS011;60852;52.190;4.422;2023-05-29T02:10:04;9.07;;;6.06;;
68942;SDS011;60852;52.190;4.422;2023-05-29T02:12:30;8.48;;;5.73;;
68942;SDS011;60852;52.190;4.422;2023-05-29T02:14:56;9.49;;;6.34;;
68942;SDS011;60852;52.190;4.422;2023-05-29T02:17:22;9.11;;;6.25;;
68942;SDS011;60852;52.190;4.422;2023-05-29T02:19:48;9.28;;;6.22;;
68942;SDS011;60852;52.190;4.422;2023-05-29T02:22:13;10.80;;;7.09;;
68942;SDS011;60852;52.190;4.422;2023-05-29T02:24:39;9.57;;;6.26;;
68942;SDS011;60852;52.190;4.422;2023-05-29T02:27:04;8.54;;;5.71;;
68942;SDS011;60852;52.190;4.422;2023-05-29T02:29:30;9.02;;;5.96;;
68942;SDS011;60852;52.190;4.422;2023-05-29T02:31:55;8.51;;;5.76;;
68942;SDS011;60852;52.190;4.422;2023-05-29T02:34:21;8.84;;;6.02;;
68942;SDS011;60852;52.190;4.422;2023-05-29T02:36:50;10.09;;;6.77;;
68942;SDS011;60852;52.190;4.422;2023-05-29T02:39:19;8.81;;;5.94;;
68942;SDS011;60852;52.190;4.422;2023-05-29T02:41:45;8.96;;;6.02;;
68942;SDS011;60852;52.190;4.422;2023-05-29T02:44:11;8.68;;;5.88;;
68942;SDS011;60852;52.190;4.422;2023-05-29T02:46:36;9.22;;;6.22;;
68942;SDS011;60852;52.190;4.422;2023-05-29T02:49:01;8.25;;;5.60;;
68942;SDS011;60852;52.190;4.422;2023-05-29T02:51:27;8.99;;;6.09;;
68942;SDS011;60852;52.190;4.422;2023-05-29T02:53:53;9.17;;;6.18;;
68942;SDS011;60852;52.190;4.422;2023-05-29T02:56:19;9.03;;;6.07;;
68942;SDS011;60852;52.190;4.422;2023-05-29T02:58:49;7.82;;;5.43;;
68942;SDS011;60852;52.190;4.422;2023-05-29T03:01:15;7.78;;;5.43;;
68942;SDS011;60852;52.190;4.422;2023-05-29T03:03:40;7.71;;;5.39;;
68942;SDS011;60852;52.190;4.422;2023-05-29T03:06:06;8.58;;;5.95;;
68942;SDS011;60852;52.190;4.422;2023-05-29T03:08:31;8.63;;;5.92;;
68942;SDS011;60852;52.190;4.422;2023-05-29T03:10:58;9.58;;;6.41;;
68942;SDS011;60852;52.190;4.422;2023-05-29T03:13:24;9.18;;;6.09;;
68942;SDS011;60852;52.190;4.422;2023-05-29T03:15:49;9.79;;;6.36;;
68942;SDS011;60852;52.190;4.422;2023-05-29T03:18:16;8.80;;;5.77;;
68942;SDS011;60852;52.190;4.422;2023-05-29T03:20:41;8.55;;;5.82;;
68942;SDS011;60852;52.190;4.422;2023-05-29T03:23:07;8.36;;;5.84;;
68942;SDS011;60852;52.190;4.422;2023-05-29T03:25:32;7.99;;;5.54;;
68942;SDS011;60852;52.190;4.422;2023-05-29T03:27:57;8.92;;;6.06;;
68942;SDS011;60852;52.190;4.422;2023-05-29T03:30:23;9.31;;;6.19;;
68942;SDS011;60852;52.190;4.422;2023-05-29T03:32:48;9.48;;;6.36;;
68942;SDS011;60852;52.190;4.422;2023-05-29T03:35:14;8.91;;;6.05;;
68942;SDS011;60852;52.190;4.422;2023-05-29T03:37:39;8.89;;;6.10;;
68942;SDS011;60852;52.190;4.422;2023-05-29T03:40:05;9.86;;;6.67;;
68942;SDS011;60852;52.190;4.422;2023-05-29T03:42:31;10.00;;;6.69;;
68942;SDS011;60852;52.190;4.422;2023-05-29T03:44:57;8.63;;;5.89;;
68942;SDS011;60852;52.190;4.422;2023-05-29T03:47:22;9.82;;;6.51;;
68942;SDS011;60852;52.190;4.422;2023-05-29T03:49:48;9.36;;;6.24;;
68942;SDS011;60852;52.190;4.422;2023-05-29T03:52:13;9.07;;;6.17;;
68942;SDS011;60852;52.190;4.422;2023-05-29T03:54:39;8.49;;;5.80;;
68942;SDS011;60852;52.190;4.422;2023-05-29T03:57:05;8.49;;;5.77;;
68942;SDS011;60852;52.190;4.422;2023-05-29T03:59:32;8.49;;;5.76;;
68942;SDS011;60852;52.190;4.422;2023-05-29T04:01:57;8.22;;;5.56;;
68942;SDS011;60852;52.190;4.422;2023-05-29T04:04:23;8.98;;;6.15;;
68942;SDS011;60852;52.190;4.422;2023-05-29T04:06:49;8.79;;;5.92;;
68942;SDS011;60852;52.190;4.422;2023-05-29T04:09:14;9.05;;;6.16;;
68942;SDS011;60852;52.190;4.422;2023-05-29T04:11:40;8.21;;;5.67;;
68942;SDS011;60852;52.190;4.422;2023-05-29T04:14:07;9.03;;;6.21;;
68942;SDS011;60852;52.190;4.422;2023-05-29T04:16:32;8.50;;;5.85;;
68942;SDS011;60852;52.190;4.422;2023-05-29T04:18:58;7.92;;;5.59;;
68942;SDS011;60852;52.190;4.422;2023-05-29T04:21:23;8.03;;;5.66;;
68942;SDS011;60852;52.190;4.422;2023-05-29T04:23:49;7.97;;;5.52;;
68942;SDS011;60852;52.190;4.422;2023-05-29T04:26:14;8.38;;;5.76;;
68942;SDS011;60852;52.190;4.422;2023-05-29T04:28:40;7.66;;;5.44;;
68942;SDS011;60852;52.190;4.422;2023-05-29T04:31:07;8.28;;;5.94;;
68942;SDS011;60852;52.190;4.422;2023-05-29T04:33:33;8.07;;;5.67;;
68942;SDS011;60852;52.190;4.422;2023-05-29T04:36:02;8.27;;;5.93;;
68942;SDS011;60852;52.190;4.422;2023-05-29T04:38:29;8.53;;;6.30;;
68942;SDS011;60852;52.190;4.422;2023-05-29T04:40:56;8.29;;;6.04;;
68942;SDS011;60852;52.190;4.422;2023-05-29T04:43:23;8.22;;;5.85;;
68942;SDS011;60852;52.190;4.422;2023-05-29T04:45:51;8.65;;;6.12;;
68942;SDS011;60852;52.190;4.422;2023-05-29T04:48:18;8.44;;;5.92;;
68942;SDS011;60852;52.190;4.422;2023-05-29T04:50:43;9.63;;;6.66;;
68942;SDS011;60852;52.190;4.422;2023-05-29T04:53:09;9.26;;;6.34;;
68942;SDS011;60852;52.190;4.422;2023-05-29T04:55:35;8.94;;;6.19;;
68942;SDS011;60852;52.190;4.422;2023-05-29T04:58:01;8.45;;;5.95;;
68942;SDS011;60852;52.190;4.422;2023-05-29T05:00:27;7.83;;;5.40;;
68942;SDS011;60852;52.190;4.422;2023-05-29T05:02:53;9.08;;;6.19;;
68942;SDS011;60852;52.190;4.422;2023-05-29T05:05:19;8.57;;;5.99;;
68942;SDS011;60852;52.190;4.422;2023-05-29T05:07:44;8.05;;;5.59;;
68942;SDS011;60852;52.190;4.422;2023-05-29T05:10:10;8.53;;;5.86;;
68942;SDS011;60852;52.190;4.422;2023-05-29T05:12:36;9.08;;;6.35;;
68942;SDS011;60852;52.190;4.422;2023-05-29T05:15:02;7.63;;;5.57;;
68942;SDS011;60852;52.190;4.422;2023-05-29T05:17:28;7.67;;;5.65;;
68942;SDS011;60852;52.190;4.422;2023-05-29T05:19:53;8.14;;;5.87;;
68942;SDS011;60852;52.190;4.422;2023-05-29T05:22:19;8.60;;;6.20;;
68942;SDS011;60852;52.190;4.422;2023-05-29T05:24:44;9.56;;;6.83;;
68942;SDS011;60852;52.190;4.422;2023-05-29T05:27:10;8.43;;;6.07;;
68942;SDS011;60852;52.190;4.422;2023-05-29T05:29:35;9.87;;;6.96;;
68942;SDS011;60852;52.190;4.422;2023-05-29T05:32:01;8.67;;;6.13;;
68942;SDS011;60852;52.190;4.422;2023-05-29T05:34:26;8.51;;;6.08;;
68942;SDS011;60852;52.190;4.422;2023-05-29T05:36:52;8.41;;;5.97;;
68942;SDS011;60852;52.190;4.422;2023-05-29T05:39:17;8.58;;;6.12;;
68942;SDS011;60852;52.190;4.422;2023-05-29T05:41:43;8.62;;;6.25;;
68942;SDS011;60852;52.190;4.422;2023-05-29T05:44:08;8.28;;;6.21;;
68942;SDS011;60852;52.190;4.422;2023-05-29T05:46:34;7.53;;;5.61;;
68942;SDS011;60852;52.190;4.422;2023-05-29T05:48:59;8.23;;;5.95;;
68942;SDS011;60852;52.190;4.422;2023-05-29T05:51:26;7.62;;;5.62;;
68942;SDS011;60852;52.190;4.422;2023-05-29T05:53:51;8.03;;;5.83;;
68942;SDS011;60852;52.190;4.422;2023-05-29T05:56:17;8.11;;;5.88;;
68942;SDS011;60852;52.190;4.422;2023-05-29T05:58:43;8.21;;;5.88;;
68942;SDS011;60852;52.190;4.422;2023-05-29T06:01:08;7.76;;;5.58;;
68942;SDS011;60852;52.190;4.422;2023-05-29T06:03:34;7.87;;;5.54;;
68942;SDS011;60852;52.190;4.422;2023-05-29T06:06:02;8.75;;;6.12;;
68942;SDS011;60852;52.190;4.422;2023-05-29T06:08:27;8.87;;;6.20;;
68942;SDS011;60852;52.190;4.422;2023-05-29T06:10:52;7.91;;;5.68;;
68942;SDS011;60852;52.190;4.422;2023-05-29T06:13:18;7.93;;;5.80;;
68942;SDS011;60852;52.190;4.422;2023-05-29T06:15:43;7.64;;;5.69;;
68942;SDS011;60852;52.190;4.422;2023-05-29T06:18:10;8.12;;;5.89;;
68942;SDS011;60852;52.190;4.422;2023-05-29T06:20:35;7.60;;;5.49;;
68942;SDS011;60852;52.190;4.422;2023-05-29T06:23:01;7.91;;;5.72;;
68942;SDS011;60852;52.190;4.422;2023-05-29T06:25:27;7.63;;;5.49;;
68942;SDS011;60852;52.190;4.422;2023-05-29T06:27:58;8.28;;;5.99;;
68942;SDS011;60852;52.190;4.422;2023-05-29T06:30:27;7.19;;;5.44;;
68942;SDS011;60852;52.190;4.422;2023-05-29T06:32:53;6.48;;;4.92;;
68942;SDS011;60852;52.190;4.422;2023-05-29T06:35:18;7.88;;;5.77;;
68942;SDS011;60852;52.190;4.422;2023-05-29T06:37:45;7.52;;;5.51;;
68942;SDS011;60852;52.190;4.422;2023-05-29T06:40:11;7.30;;;5.42;;
68942;SDS011;60852;52.190;4.422;2023-05-29T06:42:38;7.08;;;5.23;;
68942;SDS011;60852;52.190;4.422;2023-05-29T06:45:03;6.76;;;5.04;;
68942;SDS011;60852;52.190;4.422;2023-05-29T06:47:29;7.15;;;5.25;;
68942;SDS011;60852;52.190;4.422;2023-05-29T06:49:55;6.67;;;4.95;;
68942;SDS011;60852;52.190;4.422;2023-05-29T06:52:20;6.81;;;5.11;;
68942;SDS011;60852;52.190;4.422;2023-05-29T06:54:46;7.20;;;5.44;;
68942;SDS011;60852;52.190;4.422;2023-05-29T06:57:11;6.79;;;4.94;;
68942;SDS011;60852;52.190;4.422;2023-05-29T06:59:37;7.02;;;5.23;;
68942;SDS011;60852;52.190;4.422;2023-05-29T07:02:03;7.44;;;5.54;;
68942;SDS011;60852;52.190;4.422;2023-05-29T07:04:28;6.56;;;4.95;;
68942;SDS011;60852;52.190;4.422;2023-05-29T07:06:54;6.32;;;4.77;;
68942;SDS011;60852;52.190;4.422;2023-05-29T07:09:20;6.17;;;4.73;;
68942;SDS011;60852;52.190;4.422;2023-05-29T07:11:45;6.47;;;4.84;;
68942;SDS011;60852;52.190;4.422;2023-05-29T07:14:11;7.17;;;5.39;;
68942;SDS011;60852;52.190;4.422;2023-05-29T07:16:37;6.32;;;4.79;;
68942;SDS011;60852;52.190;4.422;2023-05-29T07:19:03;5.98;;;4.69;;
68942;SDS011;60852;52.190;4.422;2023-05-29T07:21:28;6.47;;;5.05;;
68942;SDS011;60852;52.190;4.422;2023-05-29T07:23:53;6.63;;;5.18;;
68942;SDS011;60852;52.190;4.422;2023-05-29T07:26:19;6.10;;;5.01;;
68942;SDS011;60852;52.190;4.422;2023-05-29T07:28:47;6.27;;;5.14;;
68942;SDS011;60852;52.190;4.422;2023-05-29T07:31:13;6.67;;;5.51;;
68942;SDS011;60852;52.190;4.422;2023-05-29T07:33:39;6.22;;;5.10;;
68942;SDS011;60852;52.190;4.422;2023-05-29T07:36:05;6.69;;;5.42;;
68942;SDS011;60852;52.190;4.422;2023-05-29T07:38:31;6.46;;;5.19;;
68942;SDS011;60852;52.190;4.422;2023-05-29T07:40:56;6.38;;;5.09;;
68942;SDS011;60852;52.190;4.422;2023-05-29T07:43:22;5.83;;;4.86;;
68942;SDS011;60852;52.190;4.422;2023-05-29T07:45:48;5.83;;;4.87;;
68942;SDS011;60852;52.190;4.422;2023-05-29T07:48:14;5.79;;;4.78;;
68942;SDS011;60852;52.190;4.422;2023-05-29T07:50:39;5.90;;;4.89;;
68942;SDS011;60852;52.190;4.422;2023-05-29T07:53:05;5.72;;;4.71;;
68942;SDS011;60852;52.190;4.422;2023-05-29T07:55:31;6.26;;;5.14;;
68942;SDS011;60852;52.190;4.422;2023-05-29T07:57:57;5.43;;;4.56;;
68942;SDS011;60852;52.190;4.422;2023-05-29T08:00:22;5.63;;;4.67;;
68942;SDS011;60852;52.190;4.422;2023-05-29T08:02:48;5.71;;;4.61;;
68942;SDS011;60852;52.190;4.422;2023-05-29T08:05:13;5.77;;;4.62;;
68942;SDS011;60852;52.190;4.422;2023-05-29T08:07:40;5.90;;;4.63;;
68942;SDS011;60852;52.190;4.422;2023-05-29T08:10:07;5.84;;;4.51;;
68942;SDS011;60852;52.190;4.422;2023-05-29T08:12:33;5.34;;;4.22;;
68942;SDS011;60852;52.190;4.422;2023-05-29T08:15:00;5.56;;;4.48;;
68942;SDS011;60852;52.190;4.422;2023-05-29T08:17:26;5.09;;;4.18;;
68942;SDS011;60852;52.190;4.422;2023-05-29T08:19:51;4.86;;;4.05;;
68942;SDS011;60852;52.190;4.422;2023-05-29T08:22:17;5.22;;;4.29;;
68942;SDS011;60852;52.190;4.422;2023-05-29T08:24:42;5.02;;;4.05;;
68942;SDS011;60852;52.190;4.422;2023-05-29T08:27:07;6.34;;;4.92;;
68942;SDS011;60852;52.190;4.422;2023-05-29T08:29:33;5.71;;;4.39;;
68942;SDS011;60852;52.190;4.422;2023-05-29T08:31:59;5.75;;;4.49;;
68942;SDS011;60852;52.190;4.422;2023-05-29T08:34:24;5.16;;;4.16;;
68942;SDS011;60852;52.190;4.422;2023-05-29T08:36:50;5.68;;;4.59;;
68942;SDS011;60852;52.190;4.422;2023-05-29T08:39:16;5.52;;;4.39;;
68942;SDS011;60852;52.190;4.422;2023-05-29T08:41:51;6.01;;;4.71;;
68942;SDS011;60852;52.190;4.422;2023-05-29T08:44:32;5.37;;;4.21;;
68942;SDS011;60852;52.190;4.422;2023-05-29T08:47:01;5.43;;;4.32;;
68942;SDS011;60852;52.190;4.422;2023-05-29T08:49:37;5.82;;;4.58;;
68942;SDS011;60852;52.190;4.422;2023-05-29T08:52:09;6.25;;;4.84;;
68942;SDS011;60852;52.190;4.422;2023-05-29T08:54:40;6.31;;;4.89;;
68942;SDS011;60852;52.190;4.422;2023-05-29T08:57:06;5.79;;;4.52;;
68942;SDS011;60852;52.190;4.422;2023-05-29T08:59:32;5.82;;;4.59;;
68942;SDS011;60852;52.190;4.422;2023-05-29T09:01:58;6.07;;;4.65;;
68942;SDS011;60852;52.190;4.422;2023-05-29T09:04:23;5.65;;;4.31;;
68942;SDS011;60852;52.190;4.422;2023-05-29T09:06:49;5.76;;;4.49;;
68942;SDS011;60852;52.190;4.422;2023-05-29T09:09:17;5.96;;;4.61;;
68942;SDS011;60852;52.190;4.422;2023-05-29T09:11:43;6.43;;;4.85;;
68942;SDS011;60852;52.190;4.422;2023-05-29T09:17:01;5.94;;;4.50;;
68942;SDS011;60852;52.190;4.422;2023-05-29T09:19:27;5.83;;;4.47;;
68942;SDS011;60852;52.190;4.422;2023-05-29T09:21:59;6.26;;;4.79;;
68942;SDS011;60852;52.190;4.422;2023-05-29T09:24:33;5.73;;;4.26;;
68942;SDS011;60852;52.190;4.422;2023-05-29T09:27:04;6.52;;;4.89;;
68942;SDS011;60852;52.190;4.422;2023-05-29T09:29:40;5.74;;;4.42;;
68942;SDS011;60852;52.190;4.422;2023-05-29T09:32:16;5.82;;;4.51;;
68942;SDS011;60852;52.190;4.422;2023-05-29T09:34:43;6.00;;;4.62;;
68942;SDS011;60852;52.190;4.422;2023-05-29T09:37:10;6.18;;;4.74;;
68942;SDS011;60852;52.190;4.422;2023-05-29T09:39:47;5.59;;;4.20;;
68942;SDS011;60852;52.190;4.422;2023-05-29T09:42:13;6.10;;;4.61;;
68942;SDS011;60852;52.190;4.422;2023-05-29T09:44:41;5.55;;;4.38;;
68942;SDS011;60852;52.190;4.422;2023-05-29T09:47:07;5.12;;;4.12;;
68942;SDS011;60852;52.190;4.422;2023-05-29T09:49:34;5.50;;;4.30;;
68942;SDS011;60852;52.190;4.422;2023-05-29T09:52:01;5.93;;;4.55;;
68942;SDS011;60852;52.190;4.422;2023-05-29T09:54:27;5.67;;;4.37;;
68942;SDS011;60852;52.190;4.422;2023-05-29T09:56:57;5.38;;;4.15;;
68942;SDS011;60852;52.190;4.422;2023-05-29T09:59:23;6.38;;;4.80;;
68942;SDS011;60852;52.190;4.422;2023-05-29T10:01:54;6.57;;;4.93;;
68942;SDS011;60852;52.190;4.422;2023-05-29T10:04:29;6.46;;;4.78;;
68942;SDS011;60852;52.190;4.422;2023-05-29T10:06:57;5.83;;;4.47;;
68942;SDS011;60852;52.190;4.422;2023-05-29T10:09:29;5.48;;;4.34;;
68942;SDS011;60852;52.190;4.422;2023-05-29T10:11:56;5.38;;;4.25;;
68942;SDS011;60852;52.190;4.422;2023-05-29T10:14:29;5.31;;;4.24;;
68942;SDS011;60852;52.190;4.422;2023-05-29T10:16:58;5.99;;;4.70;;
68942;SDS011;60852;52.190;4.422;2023-05-29T10:19:29;6.17;;;4.94;;
68942;SDS011;60852;52.190;4.422;2023-05-29T10:21:57;6.02;;;4.65;;
68942;SDS011;60852;52.190;4.422;2023-05-29T10:24:25;5.79;;;4.43;;
68942;SDS011;60852;52.190;4.422;2023-05-29T10:26:52;5.38;;;4.20;;
68942;SDS011;60852;52.190;4.422;2023-05-29T10:29:26;5.02;;;4.08;;
68942;SDS011;60852;52.190;4.422;2023-05-29T10:32:07;5.62;;;4.53;;
68942;SDS011;60852;52.190;4.422;2023-05-29T10:40:12;5.66;;;4.46;;
68942;SDS011;60852;52.190;4.422;2023-05-29T10:42:42;6.39;;;4.90;;
68942;SDS011;60852;52.190;4.422;2023-05-29T10:45:11;5.54;;;4.39;;
68942;SDS011;60852;52.190;4.422;2023-05-29T10:50:43;5.10;;;4.39;;
68942;SDS011;60852;52.190;4.422;2023-05-29T10:53:14;5.51;;;4.66;;
68942;SDS011;60852;52.190;4.422;2023-05-29T10:55:42;5.87;;;4.80;;
68942;SDS011;60852;52.190;4.422;2023-05-29T10:58:14;6.31;;;5.04;;
68942;SDS011;60852;52.190;4.422;2023-05-29T11:00:43;5.89;;;4.80;;
68942;SDS011;60852;52.190;4.422;2023-05-29T11:03:20;5.30;;;4.43;;
68942;SDS011;60852;52.190;4.422;2023-05-29T11:13:57;5.76;;;4.86;;
68942;SDS011;60852;52.190;4.422;2023-05-29T11:18:57;6.57;;;5.44;;
68942;SDS011;60852;52.190;4.422;2023-05-29T11:24:00;6.93;;;5.71;;
68942;SDS011;60852;52.190;4.422;2023-05-29T11:26:31;6.64;;;5.45;;
68942;SDS011;60852;52.190;4.422;2023-05-29T11:29:02;6.10;;;5.11;;
68942;SDS011;60852;52.190;4.422;2023-05-29T11:31:35;6.14;;;5.17;;
68942;SDS011;60852;52.190;4.422;2023-05-29T11:34:03;6.43;;;5.40;;
68942;SDS011;60852;52.190;4.422;2023-05-29T11:36:31;6.12;;;5.19;;
68942;SDS011;60852;52.190;4.422;2023-05-29T11:38:58;5.13;;;4.36;;
68942;SDS011;60852;52.190;4.422;2023-05-29T11:41:25;6.01;;;5.02;;
68942;SDS011;60852;52.190;4.422;2023-05-29T11:43:57;6.24;;;5.09;;
68942;SDS011;60852;52.190;4.422;2023-05-29T11:46:24;7.05;;;5.63;;
68942;SDS011;60852;52.190;4.422;2023-05-29T11:48:51;7.71;;;6.03;;
68942;SDS011;60852;52.190;4.422;2023-05-29T11:51:17;7.13;;;5.80;;
68942;SDS011;60852;52.190;4.422;2023-05-29T11:53:46;6.60;;;5.40;;
68942;SDS011;60852;52.190;4.422;2023-05-29T11:56:12;7.25;;;5.80;;
68942;SDS011;60852;52.190;4.422;2023-05-29T11:58:41;7.19;;;5.86;;
68942;SDS011;60852;52.190;4.422;2023-05-29T12:01:07;6.81;;;5.55;;
68942;SDS011;60852;52.190;4.422;2023-05-29T12:03:40;6.46;;;5.35;;
68942;SDS011;60852;52.190;4.422;2023-05-29T12:06:07;6.01;;;4.86;;
68942;SDS011;60852;52.190;4.422;2023-05-29T12:08:36;6.70;;;5.42;;
68942;SDS011;60852;52.190;4.422;2023-05-29T12:11:03;6.42;;;5.36;;
68942;SDS011;60852;52.190;4.422;2023-05-29T12:13:29;6.03;;;5.05;;
68942;SDS011;60852;52.190;4.422;2023-05-29T12:15:56;6.49;;;5.24;;
68942;SDS011;60852;52.190;4.422;2023-05-29T12:18:25;7.01;;;5.61;;
68942;SDS011;60852;52.190;4.422;2023-05-29T12:20:56;6.80;;;5.52;;
68942;SDS011;60852;52.190;4.422;2023-05-29T12:23:23;7.01;;;5.67;;
68942;SDS011;60852;52.190;4.422;2023-05-29T12:25:50;6.75;;;5.49;;
68942;SDS011;60852;52.190;4.422;2023-05-29T12:28:17;6.32;;;5.18;;
68942;SDS011;60852;52.190;4.422;2023-05-29T12:30:46;6.48;;;5.33;;
68942;SDS011;60852;52.190;4.422;2023-05-29T12:36:11;7.38;;;5.89;;
68942;SDS011;60852;52.190;4.422;2023-05-29T12:38:47;6.83;;;5.38;;
68942;SDS011;60852;52.190;4.422;2023-05-29T12:41:29;7.21;;;5.67;;
68942;SDS011;60852;52.190;4.422;2023-05-29T12:44:00;6.85;;;5.42;;
68942;SDS011;60852;52.190;4.422;2023-05-29T12:46:34;6.49;;;5.31;;
68942;SDS011;60852;52.190;4.422;2023-05-29T12:51:42;6.64;;;5.37;;
68942;SDS011;60852;52.190;4.422;2023-05-29T12:54:13;6.98;;;5.63;;
68942;SDS011;60852;52.190;4.422;2023-05-29T12:56:40;6.98;;;5.53;;
68942;SDS011;60852;52.190;4.422;2023-05-29T12:59:06;6.81;;;5.58;;
68942;SDS011;60852;52.190;4.422;2023-05-29T13:01:33;6.63;;;5.35;;
68942;SDS011;60852;52.190;4.422;2023-05-29T13:03:58;6.79;;;5.52;;
68942;SDS011;60852;52.190;4.422;2023-05-29T13:06:24;7.65;;;6.15;;
68942;SDS011;60852;52.190;4.422;2023-05-29T13:08:49;6.56;;;5.30;;
68942;SDS011;60852;52.190;4.422;2023-05-29T13:11:15;6.20;;;5.09;;
68942;SDS011;60852;52.190;4.422;2023-05-29T13:13:41;6.03;;;5.00;;
68942;SDS011;60852;52.190;4.422;2023-05-29T13:16:06;5.90;;;4.83;;
68942;SDS011;60852;52.190;4.422;2023-05-29T13:18:32;6.63;;;5.41;;
68942;SDS011;60852;52.190;4.422;2023-05-29T13:20:59;5.62;;;4.66;;
68942;SDS011;60852;52.190;4.422;2023-05-29T13:23:25;6.34;;;5.25;;
68942;SDS011;60852;52.190;4.422;2023-05-29T13:25:50;6.24;;;5.01;;
68942;SDS011;60852;52.190;4.422;2023-05-29T13:28:16;6.26;;;5.01;;
68942;SDS011;60852;52.190;4.422;2023-05-29T13:30:41;6.95;;;5.43;;
68942;SDS011;60852;52.190;4.422;2023-05-29T13:33:07;6.32;;;5.08;;
68942;SDS011;60852;52.190;4.422;2023-05-29T13:35:32;6.67;;;5.20;;
68942;SDS011;60852;52.190;4.422;2023-05-29T13:37:58;6.60;;;5.31;;
68942;SDS011;60852;52.190;4.422;2023-05-29T13:40:23;5.58;;;4.61;;
68942;SDS011;60852;52.190;4.422;2023-05-29T13:42:49;7.14;;;5.66;;
68942;SDS011;60852;52.190;4.422;2023-05-29T13:45:14;6.69;;;5.28;;
68942;SDS011;60852;52.190;4.422;2023-05-29T13:47:39;6.13;;;4.99;;
68942;SDS011;60852;52.190;4.422;2023-05-29T13:50:05;6.86;;;5.41;;
68942;SDS011;60852;52.190;4.422;2023-05-29T13:52:32;6.53;;;5.12;;
68942;SDS011;60852;52.190;4.422;2023-05-29T13:54:57;6.57;;;5.27;;
68942;SDS011;60852;52.190;4.422;2023-05-29T13:57:29;6.46;;;5.16;;
68942;SDS011;60852;52.190;4.422;2023-05-29T13:59:56;6.80;;;5.36;;
68942;SDS011;60852;52.190;4.422;2023-05-29T14:02:21;6.21;;;4.87;;
68942;SDS011;60852;52.190;4.422;2023-05-29T14:04:47;6.66;;;5.32;;
68942;SDS011;60852;52.190;4.422;2023-05-29T14:07:13;6.34;;;5.14;;
68942;SDS011;60852;52.190;4.422;2023-05-29T14:09:38;5.90;;;4.80;;
68942;SDS011;60852;52.190;4.422;2023-05-29T14:12:04;5.76;;;4.96;;
68942;SDS011;60852;52.190;4.422;2023-05-29T14:14:32;6.10;;;5.26;;
68942;SDS011;60852;52.190;4.422;2023-05-29T14:16:58;6.68;;;5.41;;
68942;SDS011;60852;52.190;4.422;2023-05-29T14:19:23;6.74;;;5.36;;
68942;SDS011;60852;52.190;4.422;2023-05-29T14:21:49;7.41;;;5.90;;
68942;SDS011;60852;52.190;4.422;2023-05-29T14:24:15;6.92;;;5.46;;
68942;SDS011;60852;52.190;4.422;2023-05-29T14:26:42;6.17;;;4.99;;
68942;SDS011;60852;52.190;4.422;2023-05-29T14:29:10;6.41;;;5.19;;
68942;SDS011;60852;52.190;4.422;2023-05-29T14:31:36;5.90;;;4.81;;
68942;SDS011;60852;52.190;4.422;2023-05-29T14:34:02;6.74;;;5.36;;
68942;SDS011;60852;52.190;4.422;2023-05-29T14:36:27;6.06;;;4.79;;
68942;SDS011;60852;52.190;4.422;2023-05-29T14:38:53;7.23;;;5.67;;
68942;SDS011;60852;52.190;4.422;2023-05-29T14:41:18;6.38;;;5.13;;
68942;SDS011;60852;52.190;4.422;2023-05-29T14:43:43;6.81;;;5.41;;
68942;SDS011;60852;52.190;4.422;2023-05-29T14:46:09;6.75;;;5.33;;
68942;SDS011;60852;52.190;4.422;2023-05-29T14:48:35;6.42;;;4.99;;
68942;SDS011;60852;52.190;4.422;2023-05-29T14:51:01;6.79;;;5.42;;
68942;SDS011;60852;52.190;4.422;2023-05-29T14:53:26;6.81;;;5.50;;
68942;SDS011;60852;52.190;4.422;2023-05-29T14:55:52;6.46;;;5.28;;
68942;SDS011;60852;52.190;4.422;2023-05-29T14:58:17;5.93;;;4.80;;
68942;SDS011;60852;52.190;4.422;2023-05-29T15:00:43;6.32;;;5.07;;
68942;SDS011;60852;52.190;4.422;2023-05-29T15:03:08;6.29;;;5.08;;
68942;SDS011;60852;52.190;4.422;2023-05-29T15:05:34;6.49;;;5.19;;
68942;SDS011;60852;52.190;4.422;2023-05-29T15:07:59;5.92;;;4.69;;
68942;SDS011;60852;52.190;4.422;2023-05-29T15:10:25;5.96;;;4.80;;
68942;SDS011;60852;52.190;4.422;2023-05-29T15:12:52;6.42;;;5.19;;
68942;SDS011;60852;52.190;4.422;2023-05-29T15:15:25;5.85;;;4.75;;
68942;SDS011;60852;52.190;4.422;2023-05-29T15:17:51;6.25;;;5.01;;
68942;SDS011;60852;52.190;4.422;2023-05-29T15:20:23;5.81;;;4.67;;
68942;SDS011;60852;52.190;4.422;2023-05-29T15:22:50;5.33;;;4.41;;
68942;SDS011;60852;52.190;4.422;2023-05-29T15:25:17;5.29;;;4.36;;
68942;SDS011;60852;52.190;4.422;2023-05-29T15:27:44;5.58;;;4.61;;
68942;SDS011;60852;52.190;4.422;2023-05-29T15:30:10;6.16;;;4.93;;